sensor_id;sensor_type;location;lat;lon;timestamp;P1;durP1;ratioP1;P2;durP2;ratioP2
22634;SDS011;11484;50.858;4.384;2023-04-16T00:01:39;6.38;;;3.60;;
22634;SDS011;11484;50.858;4.384;2023-04-16T00:04:05;7.15;;;3.50;;
22634;SDS011;11484;50.858;4.384;2023-04-16T00:06:30;7.93;;;4.25;;
22634;SDS011;11484;50.858;4.384;2023-04-16T00:08:56;6.45;;;4.10;;
22634;SDS011;11484;50.858;4.384;2023-04-16T00:11:22;7.20;;;3.95;;
22634;SDS011;11484;50.858;4.384;2023-04-16T00:13:48;8.23;;;4.00;;
22634;SDS011;11484;50.858;4.384;2023-04-16T00:16:14;7.43;;;3.78;;
22634;SDS011;11484;50.858;4.384;2023-04-16T00:18:39;5.50;;;4.00;;
22634;SDS011;11484;50.858;4.384;2023-04-16T00:21:05;8.77;;;4.43;;
22634;SDS011;11484;50.858;4.384;2023-04-16T00:23:31;8.38;;;4.35;;
22634;SDS011;11484;50.858;4.384;2023-04-16T00:25:57;7.43;;;3.85;;
22634;SDS011;11484;50.858;4.384;2023-04-16T00:28:24;6.68;;;3.65;;
22634;SDS011;11484;50.858;4.384;2023-04-16T00:30:50;6.60;;;4.15;;
22634;SDS011;11484;50.858;4.384;2023-04-16T00:33:16;7.80;;;3.95;;
22634;SDS011;11484;50.858;4.384;2023-04-16T00:35:44;6.20;;;3.13;;
22634;SDS011;11484;50.858;4.384;2023-04-16T00:38:10;5.80;;;3.53;;
22634;SDS011;11484;50.858;4.384;2023-04-16T00:40:36;6.40;;;3.85;;
22634;SDS011;11484;50.858;4.384;2023-04-16T00:43:02;3.92;;;3.38;;
22634;SDS011;11484;50.858;4.384;2023-04-16T00:45:28;10.05;;;3.70;;
22634;SDS011;11484;50.858;4.384;2023-04-16T00:47:54;7.30;;;4.15;;
22634;SDS011;11484;50.858;4.384;2023-04-16T00:50:20;5.15;;;3.17;;
22634;SDS011;11484;50.858;4.384;2023-04-16T00:52:47;6.93;;;3.70;;
22634;SDS011;11484;50.858;4.384;2023-04-16T00:55:14;9.43;;;3.30;;
22634;SDS011;11484;50.858;4.384;2023-04-16T00:57:41;8.80;;;4.13;;
22634;SDS011;11484;50.858;4.384;2023-04-16T01:00:07;6.45;;;3.92;;
22634;SDS011;11484;50.858;4.384;2023-04-16T01:02:34;8.38;;;4.03;;
22634;SDS011;11484;50.858;4.384;2023-04-16T01:05:00;5.70;;;4.20;;
22634;SDS011;11484;50.858;4.384;2023-04-16T01:07:27;6.43;;;4.00;;
22634;SDS011;11484;50.858;4.384;2023-04-16T01:09:53;8.48;;;4.10;;
22634;SDS011;11484;50.858;4.384;2023-04-16T01:12:19;6.22;;;3.55;;
22634;SDS011;11484;50.858;4.384;2023-04-16T01:14:45;7.18;;;4.00;;
22634;SDS011;11484;50.858;4.384;2023-04-16T01:17:10;6.95;;;3.72;;
22634;SDS011;11484;50.858;4.384;2023-04-16T01:19:36;9.18;;;3.78;;
22634;SDS011;11484;50.858;4.384;2023-04-16T01:22:02;7.88;;;2.70;;
22634;SDS011;11484;50.858;4.384;2023-04-16T01:24:29;6.72;;;3.42;;
22634;SDS011;11484;50.858;4.384;2023-04-16T01:26:56;6.75;;;2.70;;
22634;SDS011;11484;50.858;4.384;2023-04-16T01:29:23;4.50;;;2.60;;
22634;SDS011;11484;50.858;4.384;2023-04-16T01:31:49;5.55;;;2.50;;
22634;SDS011;11484;50.858;4.384;2023-04-16T01:34:15;5.07;;;2.47;;
22634;SDS011;11484;50.858;4.384;2023-04-16T01:36:41;5.72;;;2.33;;
22634;SDS011;11484;50.858;4.384;2023-04-16T01:39:06;6.53;;;2.63;;
22634;SDS011;11484;50.858;4.384;2023-04-16T01:41:35;6.85;;;3.13;;
22634;SDS011;11484;50.858;4.384;2023-04-16T01:44:01;4.82;;;2.40;;
22634;SDS011;11484;50.858;4.384;2023-04-16T01:46:27;5.80;;;2.60;;
22634;SDS011;11484;50.858;4.384;2023-04-16T01:48:55;5.15;;;2.65;;
22634;SDS011;11484;50.858;4.384;2023-04-16T01:51:25;6.15;;;3.63;;
22634;SDS011;11484;50.858;4.384;2023-04-16T01:53:52;6.07;;;3.45;;
22634;SDS011;11484;50.858;4.384;2023-04-16T01:56:18;4.85;;;2.92;;
22634;SDS011;11484;50.858;4.384;2023-04-16T01:58:44;6.88;;;3.17;;
22634;SDS011;11484;50.858;4.384;2023-04-16T02:01:11;4.07;;;2.85;;
22634;SDS011;11484;50.858;4.384;2023-04-16T02:03:37;5.82;;;2.97;;
22634;SDS011;11484;50.858;4.384;2023-04-16T02:06:03;6.90;;;3.30;;
22634;SDS011;11484;50.858;4.384;2023-04-16T02:08:29;4.25;;;2.95;;
22634;SDS011;11484;50.858;4.384;2023-04-16T02:10:55;6.25;;;3.00;;
22634;SDS011;11484;50.858;4.384;2023-04-16T02:13:21;4.80;;;3.45;;
22634;SDS011;11484;50.858;4.384;2023-04-16T02:15:47;7.47;;;3.25;;
22634;SDS011;11484;50.858;4.384;2023-04-16T02:18:14;3.55;;;3.10;;
22634;SDS011;11484;50.858;4.384;2023-04-16T02:20:44;3.97;;;3.00;;
22634;SDS011;11484;50.858;4.384;2023-04-16T02:23:11;11.98;;;3.63;;
22634;SDS011;11484;50.858;4.384;2023-04-16T02:25:39;7.22;;;3.20;;
22634;SDS011;11484;50.858;4.384;2023-04-16T02:28:10;3.75;;;3.03;;
22634;SDS011;11484;50.858;4.384;2023-04-16T02:30:38;5.95;;;2.83;;
22634;SDS011;11484;50.858;4.384;2023-04-16T02:33:05;4.80;;;2.88;;
22634;SDS011;11484;50.858;4.384;2023-04-16T02:35:36;5.63;;;2.83;;
22634;SDS011;11484;50.858;4.384;2023-04-16T02:38:02;2.75;;;2.53;;
22634;SDS011;11484;50.858;4.384;2023-04-16T02:40:29;4.50;;;2.70;;
22634;SDS011;11484;50.858;4.384;2023-04-16T02:42:55;3.78;;;2.90;;
22634;SDS011;11484;50.858;4.384;2023-04-16T02:45:21;5.45;;;3.40;;
22634;SDS011;11484;50.858;4.384;2023-04-16T02:47:47;4.68;;;2.95;;
22634;SDS011;11484;50.858;4.384;2023-04-16T02:50:13;3.97;;;3.13;;
22634;SDS011;11484;50.858;4.384;2023-04-16T02:52:39;6.07;;;3.15;;
22634;SDS011;11484;50.858;4.384;2023-04-16T02:55:05;5.85;;;3.15;;
22634;SDS011;11484;50.858;4.384;2023-04-16T02:57:31;8.57;;;3.40;;
22634;SDS011;11484;50.858;4.384;2023-04-16T02:59:57;6.03;;;3.08;;
22634;SDS011;11484;50.858;4.384;2023-04-16T03:02:23;5.68;;;3.22;;
22634;SDS011;11484;50.858;4.384;2023-04-16T03:04:49;3.97;;;3.17;;
22634;SDS011;11484;50.858;4.384;2023-04-16T03:07:15;4.97;;;3.00;;
22634;SDS011;11484;50.858;4.384;2023-04-16T03:09:42;4.22;;;3.20;;
22634;SDS011;11484;50.858;4.384;2023-04-16T03:12:08;4.25;;;3.13;;
22634;SDS011;11484;50.858;4.384;2023-04-16T03:14:33;4.38;;;2.80;;
22634;SDS011;11484;50.858;4.384;2023-04-16T03:16:59;3.55;;;2.95;;
22634;SDS011;11484;50.858;4.384;2023-04-16T03:19:25;5.68;;;2.90;;
22634;SDS011;11484;50.858;4.384;2023-04-16T03:21:50;4.93;;;2.95;;
22634;SDS011;11484;50.858;4.384;2023-04-16T03:24:16;3.72;;;2.40;;
22634;SDS011;11484;50.858;4.384;2023-04-16T03:26:42;6.60;;;2.90;;
22634;SDS011;11484;50.858;4.384;2023-04-16T03:29:07;5.70;;;2.75;;
22634;SDS011;11484;50.858;4.384;2023-04-16T03:31:33;6.15;;;3.08;;
22634;SDS011;11484;50.858;4.384;2023-04-16T03:33:59;4.93;;;2.70;;
22634;SDS011;11484;50.858;4.384;2023-04-16T03:36:25;7.32;;;2.90;;
22634;SDS011;11484;50.858;4.384;2023-04-16T03:38:51;3.40;;;2.40;;
22634;SDS011;11484;50.858;4.384;2023-04-16T03:41:17;4.07;;;2.30;;
22634;SDS011;11484;50.858;4.384;2023-04-16T03:43:43;9.30;;;2.30;;
22634;SDS011;11484;50.858;4.384;2023-04-16T03:46:08;6.30;;;2.55;;
22634;SDS011;11484;50.858;4.384;2023-04-16T03:48:34;5.00;;;1.77;;
22634;SDS011;11484;50.858;4.384;2023-04-16T03:51:01;3.13;;;1.77;;
22634;SDS011;11484;50.858;4.384;2023-04-16T03:53:26;5.15;;;1.95;;
22634;SDS011;11484;50.858;4.384;2023-04-16T03:55:53;7.88;;;2.30;;
22634;SDS011;11484;50.858;4.384;2023-04-16T03:58:19;7.07;;;2.47;;
22634;SDS011;11484;50.858;4.384;2023-04-16T04:00:45;3.88;;;1.88;;
22634;SDS011;11484;50.858;4.384;2023-04-16T04:03:11;5.53;;;2.08;;
22634;SDS011;11484;50.858;4.384;2023-04-16T04:05:40;5.45;;;2.00;;
22634;SDS011;11484;50.858;4.384;2023-04-16T04:08:06;5.50;;;1.77;;
22634;SDS011;11484;50.858;4.384;2023-04-16T04:10:36;6.20;;;2.13;;
22634;SDS011;11484;50.858;4.384;2023-04-16T04:13:02;8.57;;;2.22;;
22634;SDS011;11484;50.858;4.384;2023-04-16T04:15:30;5.88;;;2.30;;
22634;SDS011;11484;50.858;4.384;2023-04-16T04:17:56;4.60;;;2.60;;
22634;SDS011;11484;50.858;4.384;2023-04-16T04:20:22;7.07;;;2.75;;
22634;SDS011;11484;50.858;4.384;2023-04-16T04:22:48;4.70;;;2.42;;
22634;SDS011;11484;50.858;4.384;2023-04-16T04:25:15;6.90;;;2.42;;
22634;SDS011;11484;50.858;4.384;2023-04-16T04:27:41;7.80;;;3.10;;
22634;SDS011;11484;50.858;4.384;2023-04-16T04:30:07;4.85;;;2.78;;
22634;SDS011;11484;50.858;4.384;2023-04-16T04:32:33;6.20;;;3.00;;
22634;SDS011;11484;50.858;4.384;2023-04-16T04:35:00;4.63;;;3.00;;
22634;SDS011;11484;50.858;4.384;2023-04-16T04:37:26;6.57;;;3.35;;
22634;SDS011;11484;50.858;4.384;2023-04-16T04:39:52;6.55;;;3.50;;
22634;SDS011;11484;50.858;4.384;2023-04-16T04:42:18;5.82;;;3.70;;
22634;SDS011;11484;50.858;4.384;2023-04-16T04:44:45;8.50;;;4.03;;
22634;SDS011;11484;50.858;4.384;2023-04-16T04:47:11;10.40;;;4.10;;
22634;SDS011;11484;50.858;4.384;2023-04-16T04:49:37;6.55;;;3.72;;
22634;SDS011;11484;50.858;4.384;2023-04-16T04:52:02;6.57;;;3.95;;
22634;SDS011;11484;50.858;4.384;2023-04-16T04:54:29;8.73;;;4.75;;
22634;SDS011;11484;50.858;4.384;2023-04-16T04:56:55;8.20;;;3.67;;
22634;SDS011;11484;50.858;4.384;2023-04-16T04:59:22;7.93;;;3.80;;
22634;SDS011;11484;50.858;4.384;2023-04-16T05:01:48;6.20;;;3.22;;
22634;SDS011;11484;50.858;4.384;2023-04-16T05:04:14;4.38;;;3.03;;
22634;SDS011;11484;50.858;4.384;2023-04-16T05:06:40;5.22;;;2.80;;
22634;SDS011;11484;50.858;4.384;2023-04-16T05:09:05;5.78;;;2.72;;
22634;SDS011;11484;50.858;4.384;2023-04-16T05:11:35;6.45;;;2.50;;
22634;SDS011;11484;50.858;4.384;2023-04-16T05:14:03;3.50;;;2.42;;
22634;SDS011;11484;50.858;4.384;2023-04-16T05:16:29;4.57;;;2.10;;
22634;SDS011;11484;50.858;4.384;2023-04-16T05:18:54;4.93;;;2.45;;
22634;SDS011;11484;50.858;4.384;2023-04-16T05:21:21;6.30;;;2.50;;
22634;SDS011;11484;50.858;4.384;2023-04-16T05:23:47;3.47;;;2.13;;
22634;SDS011;11484;50.858;4.384;2023-04-16T05:26:13;3.53;;;1.92;;
22634;SDS011;11484;50.858;4.384;2023-04-16T05:28:39;7.10;;;2.72;;
22634;SDS011;11484;50.858;4.384;2023-04-16T05:31:04;4.35;;;2.00;;
22634;SDS011;11484;50.858;4.384;2023-04-16T05:33:30;5.07;;;2.47;;
22634;SDS011;11484;50.858;4.384;2023-04-16T05:35:56;5.57;;;1.90;;
22634;SDS011;11484;50.858;4.384;2023-04-16T05:38:22;5.22;;;1.85;;
22634;SDS011;11484;50.858;4.384;2023-04-16T05:40:47;5.35;;;1.75;;
22634;SDS011;11484;50.858;4.384;2023-04-16T05:43:13;5.97;;;2.20;;
22634;SDS011;11484;50.858;4.384;2023-04-16T05:45:39;4.95;;;1.70;;
22634;SDS011;11484;50.858;4.384;2023-04-16T05:48:08;3.05;;;1.55;;
22634;SDS011;11484;50.858;4.384;2023-04-16T05:50:34;5.75;;;1.85;;
22634;SDS011;11484;50.858;4.384;2023-04-16T05:53:03;5.07;;;1.60;;
22634;SDS011;11484;50.858;4.384;2023-04-16T05:55:31;6.63;;;1.85;;
22634;SDS011;11484;50.858;4.384;2023-04-16T05:57:57;4.63;;;1.90;;
22634;SDS011;11484;50.858;4.384;2023-04-16T06:00:23;4.53;;;2.05;;
22634;SDS011;11484;50.858;4.384;2023-04-16T06:02:49;7.88;;;1.73;;
22634;SDS011;11484;50.858;4.384;2023-04-16T06:05:14;6.22;;;1.88;;
22634;SDS011;11484;50.858;4.384;2023-04-16T06:07:40;4.80;;;1.95;;
22634;SDS011;11484;50.858;4.384;2023-04-16T06:10:06;6.60;;;2.13;;
22634;SDS011;11484;50.858;4.384;2023-04-16T06:12:32;5.20;;;2.45;;
22634;SDS011;11484;50.858;4.384;2023-04-16T06:14:58;5.50;;;2.25;;
22634;SDS011;11484;50.858;4.384;2023-04-16T06:17:24;4.95;;;2.42;;
22634;SDS011;11484;50.858;4.384;2023-04-16T06:19:51;3.67;;;2.35;;
22634;SDS011;11484;50.858;4.384;2023-04-16T06:22:16;4.53;;;2.50;;
22634;SDS011;11484;50.858;4.384;2023-04-16T06:24:42;5.03;;;2.38;;
22634;SDS011;11484;50.858;4.384;2023-04-16T06:27:08;4.95;;;2.80;;
22634;SDS011;11484;50.858;4.384;2023-04-16T06:29:34;4.03;;;2.92;;
22634;SDS011;11484;50.858;4.384;2023-04-16T06:32:01;4.78;;;2.60;;
22634;SDS011;11484;50.858;4.384;2023-04-16T06:34:27;5.35;;;2.50;;
22634;SDS011;11484;50.858;4.384;2023-04-16T06:36:53;5.43;;;2.65;;
22634;SDS011;11484;50.858;4.384;2023-04-16T06:39:19;7.72;;;2.80;;
22634;SDS011;11484;50.858;4.384;2023-04-16T06:41:46;5.43;;;2.78;;
22634;SDS011;11484;50.858;4.384;2023-04-16T06:44:12;7.97;;;3.58;;
22634;SDS011;11484;50.858;4.384;2023-04-16T06:46:38;5.88;;;2.90;;
22634;SDS011;11484;50.858;4.384;2023-04-16T06:49:04;5.50;;;3.03;;
22634;SDS011;11484;50.858;4.384;2023-04-16T06:51:30;4.43;;;2.83;;
22634;SDS011;11484;50.858;4.384;2023-04-16T06:53:56;7.10;;;3.35;;
22634;SDS011;11484;50.858;4.384;2023-04-16T06:56:22;4.53;;;3.17;;
22634;SDS011;11484;50.858;4.384;2023-04-16T06:58:48;7.47;;;3.30;;
22634;SDS011;11484;50.858;4.384;2023-04-16T07:01:14;8.50;;;4.07;;
22634;SDS011;11484;50.858;4.384;2023-04-16T07:03:41;6.53;;;4.00;;
22634;SDS011;11484;50.858;4.384;2023-04-16T07:06:07;7.63;;;4.30;;
22634;SDS011;11484;50.858;4.384;2023-04-16T07:08:33;7.68;;;4.43;;
22634;SDS011;11484;50.858;4.384;2023-04-16T07:10:58;12.82;;;5.47;;
22634;SDS011;11484;50.858;4.384;2023-04-16T07:13:24;8.77;;;4.80;;
22634;SDS011;11484;50.858;4.384;2023-04-16T07:15:50;11.25;;;4.95;;
22634;SDS011;11484;50.858;4.384;2023-04-16T07:18:15;10.43;;;4.70;;
22634;SDS011;11484;50.858;4.384;2023-04-16T07:20:41;13.15;;;5.45;;
22634;SDS011;11484;50.858;4.384;2023-04-16T07:23:07;9.52;;;5.30;;
22634;SDS011;11484;50.858;4.384;2023-04-16T07:25:32;10.65;;;5.18;;
22634;SDS011;11484;50.858;4.384;2023-04-16T07:27:58;10.63;;;4.80;;
22634;SDS011;11484;50.858;4.384;2023-04-16T07:30:23;8.70;;;5.10;;
22634;SDS011;11484;50.858;4.384;2023-04-16T07:32:49;7.75;;;4.93;;
22634;SDS011;11484;50.858;4.384;2023-04-16T07:35:15;11.57;;;4.63;;
22634;SDS011;11484;50.858;4.384;2023-04-16T07:37:41;9.35;;;4.60;;
22634;SDS011;11484;50.858;4.384;2023-04-16T07:40:07;9.20;;;4.18;;
22634;SDS011;11484;50.858;4.384;2023-04-16T07:42:33;10.05;;;4.28;;
22634;SDS011;11484;50.858;4.384;2023-04-16T07:44:59;11.73;;;5.13;;
22634;SDS011;11484;50.858;4.384;2023-04-16T07:47:25;11.35;;;4.47;;
22634;SDS011;11484;50.858;4.384;2023-04-16T07:49:51;10.88;;;4.70;;
22634;SDS011;11484;50.858;4.384;2023-04-16T07:52:18;8.93;;;5.07;;
22634;SDS011;11484;50.858;4.384;2023-04-16T07:54:43;10.45;;;5.15;;
22634;SDS011;11484;50.858;4.384;2023-04-16T07:57:09;10.15;;;5.30;;
22634;SDS011;11484;50.858;4.384;2023-04-16T07:59:36;11.02;;;5.32;;
22634;SDS011;11484;50.858;4.384;2023-04-16T08:02:01;14.70;;;5.38;;
22634;SDS011;11484;50.858;4.384;2023-04-16T08:04:28;13.80;;;5.20;;
22634;SDS011;11484;50.858;4.384;2023-04-16T08:06:54;13.00;;;5.47;;
22634;SDS011;11484;50.858;4.384;2023-04-16T08:09:21;9.85;;;5.60;;
22634;SDS011;11484;50.858;4.384;2023-04-16T08:11:47;13.25;;;5.93;;
22634;SDS011;11484;50.858;4.384;2023-04-16T08:14:14;9.23;;;5.60;;
22634;SDS011;11484;50.858;4.384;2023-04-16T08:16:41;10.95;;;5.60;;
22634;SDS011;11484;50.858;4.384;2023-04-16T08:19:06;10.63;;;5.30;;
22634;SDS011;11484;50.858;4.384;2023-04-16T08:21:32;14.82;;;6.20;;
22634;SDS011;11484;50.858;4.384;2023-04-16T08:23:58;17.20;;;6.40;;
22634;SDS011;11484;50.858;4.384;2023-04-16T08:26:24;12.05;;;5.93;;
22634;SDS011;11484;50.858;4.384;2023-04-16T08:28:50;13.50;;;5.70;;
22634;SDS011;11484;50.858;4.384;2023-04-16T08:31:15;11.32;;;5.25;;
22634;SDS011;11484;50.858;4.384;2023-04-16T08:33:41;12.90;;;6.80;;
22634;SDS011;11484;50.858;4.384;2023-04-16T08:36:07;9.63;;;6.07;;
22634;SDS011;11484;50.858;4.384;2023-04-16T08:38:33;9.90;;;6.20;;
22634;SDS011;11484;50.858;4.384;2023-04-16T08:41:01;9.25;;;5.50;;
22634;SDS011;11484;50.858;4.384;2023-04-16T08:43:32;11.88;;;5.85;;
22634;SDS011;11484;50.858;4.384;2023-04-16T08:45:58;12.15;;;5.80;;
22634;SDS011;11484;50.858;4.384;2023-04-16T08:48:25;11.40;;;5.95;;
22634;SDS011;11484;50.858;4.384;2023-04-16T08:50:56;11.75;;;6.60;;
22634;SDS011;11484;50.858;4.384;2023-04-16T08:53:28;11.27;;;6.38;;
22634;SDS011;11484;50.858;4.384;2023-04-16T08:56:04;13.27;;;6.57;;
22634;SDS011;11484;50.858;4.384;2023-04-16T08:58:32;13.13;;;7.15;;
22634;SDS011;11484;50.858;4.384;2023-04-16T09:01:00;15.05;;;6.82;;
22634;SDS011;11484;50.858;4.384;2023-04-16T09:03:28;17.25;;;6.60;;
22634;SDS011;11484;50.858;4.384;2023-04-16T09:05:55;12.88;;;6.90;;
22634;SDS011;11484;50.858;4.384;2023-04-16T09:08:23;11.55;;;6.40;;
22634;SDS011;11484;50.858;4.384;2023-04-16T09:10:49;14.90;;;6.40;;
22634;SDS011;11484;50.858;4.384;2023-04-16T09:13:15;12.05;;;6.43;;
22634;SDS011;11484;50.858;4.384;2023-04-16T09:15:44;14.02;;;6.85;;
22634;SDS011;11484;50.858;4.384;2023-04-16T09:18:10;12.27;;;6.97;;
22634;SDS011;11484;50.858;4.384;2023-04-16T09:20:37;14.10;;;6.65;;
22634;SDS011;11484;50.858;4.384;2023-04-16T09:23:03;14.13;;;6.43;;
22634;SDS011;11484;50.858;4.384;2023-04-16T09:25:34;11.90;;;6.50;;
22634;SDS011;11484;50.858;4.384;2023-04-16T09:28:01;13.90;;;6.45;;
22634;SDS011;11484;50.858;4.384;2023-04-16T09:30:27;13.88;;;7.63;;
22634;SDS011;11484;50.858;4.384;2023-04-16T09:33:12;14.90;;;6.32;;
22634;SDS011;11484;50.858;4.384;2023-04-16T09:35:46;15.50;;;7.10;;
22634;SDS011;11484;50.858;4.384;2023-04-16T09:38:13;12.20;;;6.40;;
22634;SDS011;11484;50.858;4.384;2023-04-16T09:40:39;19.60;;;7.15;;
22634;SDS011;11484;50.858;4.384;2023-04-16T09:43:15;11.60;;;6.55;;
22634;SDS011;11484;50.858;4.384;2023-04-16T09:45:52;12.32;;;6.78;;
22634;SDS011;11484;50.858;4.384;2023-04-16T09:48:28;16.55;;;6.93;;
22634;SDS011;11484;50.858;4.384;2023-04-16T09:50:57;12.85;;;6.72;;
22634;SDS011;11484;50.858;4.384;2023-04-16T09:53:24;15.35;;;6.88;;
22634;SDS011;11484;50.858;4.384;2023-04-16T09:55:51;16.58;;;6.63;;
22634;SDS011;11484;50.858;4.384;2023-04-16T09:58:20;11.85;;;6.90;;
22634;SDS011;11484;50.858;4.384;2023-04-16T10:00:48;11.60;;;6.20;;
22634;SDS011;11484;50.858;4.384;2023-04-16T10:03:23;13.40;;;6.28;;
22634;SDS011;11484;50.858;4.384;2023-04-16T10:08:31;11.68;;;6.38;;
22634;SDS011;11484;50.858;4.384;2023-04-16T10:10:57;13.40;;;7.22;;
22634;SDS011;11484;50.858;4.384;2023-04-16T10:13:23;14.80;;;6.40;;
22634;SDS011;11484;50.858;4.384;2023-04-16T10:15:54;14.90;;;6.93;;
22634;SDS011;11484;50.858;4.384;2023-04-16T10:18:21;10.25;;;6.43;;
22634;SDS011;11484;50.858;4.384;2023-04-16T10:20:48;12.38;;;6.65;;
22634;SDS011;11484;50.858;4.384;2023-04-16T10:23:18;17.90;;;7.63;;
22634;SDS011;11484;50.858;4.384;2023-04-16T10:25:46;12.98;;;6.97;;
22634;SDS011;11484;50.858;4.384;2023-04-16T10:28:16;11.15;;;6.75;;
22634;SDS011;11484;50.858;4.384;2023-04-16T10:30:43;11.75;;;6.72;;
22634;SDS011;11484;50.858;4.384;2023-04-16T10:33:18;11.82;;;6.95;;
22634;SDS011;11484;50.858;4.384;2023-04-16T10:35:51;13.18;;;6.40;;
22634;SDS011;11484;50.858;4.384;2023-04-16T10:38:30;16.38;;;7.65;;
22634;SDS011;11484;50.858;4.384;2023-04-16T10:41:03;10.07;;;6.82;;
22634;SDS011;11484;50.858;4.384;2023-04-16T10:43:31;11.13;;;6.75;;
22634;SDS011;11484;50.858;4.384;2023-04-16T10:46:20;12.68;;;7.40;;
22634;SDS011;11484;50.858;4.384;2023-04-16T10:48:49;10.10;;;7.60;;
22634;SDS011;11484;50.858;4.384;2023-04-16T10:51:23;13.43;;;6.90;;
22634;SDS011;11484;50.858;4.384;2023-04-16T10:54:40;15.50;;;6.93;;
22634;SDS011;11484;50.858;4.384;2023-04-16T10:56:41;13.23;;;6.72;;
22634;SDS011;11484;50.858;4.384;2023-04-16T10:59:10;14.63;;;6.88;;
22634;SDS011;11484;50.858;4.384;2023-04-16T11:01:37;9.75;;;6.10;;
22634;SDS011;11484;50.858;4.384;2023-04-16T11:09:51;14.68;;;7.22;;
22634;SDS011;11484;50.858;4.384;2023-04-16T11:12:25;13.48;;;7.30;;
22634;SDS011;11484;50.858;4.384;2023-04-16T11:15:12;13.00;;;6.97;;
22634;SDS011;11484;50.858;4.384;2023-04-16T11:20:45;10.95;;;6.88;;
22634;SDS011;11484;50.858;4.384;2023-04-16T11:23:06;15.48;;;7.95;;
22634;SDS011;11484;50.858;4.384;2023-04-16T11:25:37;15.80;;;7.78;;
22634;SDS011;11484;50.858;4.384;2023-04-16T11:28:02;14.63;;;7.57;;
22634;SDS011;11484;50.858;4.384;2023-04-16T11:30:29;13.85;;;6.55;;
22634;SDS011;11484;50.858;4.384;2023-04-16T11:32:57;13.20;;;6.82;;
22634;SDS011;11484;50.858;4.384;2023-04-16T11:35:25;14.27;;;7.10;;
22634;SDS011;11484;50.858;4.384;2023-04-16T11:37:54;15.10;;;8.20;;
22634;SDS011;11484;50.858;4.384;2023-04-16T11:40:20;12.77;;;7.28;;
22634;SDS011;11484;50.858;4.384;2023-04-16T11:42:46;10.88;;;7.43;;
22634;SDS011;11484;50.858;4.384;2023-04-16T11:45:12;16.13;;;8.07;;
22634;SDS011;11484;50.858;4.384;2023-04-16T11:47:47;12.45;;;7.97;;
22634;SDS011;11484;50.858;4.384;2023-04-16T11:52:42;14.60;;;8.18;;
22634;SDS011;11484;50.858;4.384;2023-04-16T11:55:08;14.35;;;8.50;;
22634;SDS011;11484;50.858;4.384;2023-04-16T11:57:33;14.77;;;8.13;;
22634;SDS011;11484;50.858;4.384;2023-04-16T11:59:59;13.80;;;7.72;;
22634;SDS011;11484;50.858;4.384;2023-04-16T12:02:37;15.63;;;8.35;;
22634;SDS011;11484;50.858;4.384;2023-04-16T12:05:06;15.02;;;7.45;;
22634;SDS011;11484;50.858;4.384;2023-04-16T12:07:54;14.40;;;8.13;;
22634;SDS011;11484;50.858;4.384;2023-04-16T12:10:21;14.50;;;8.45;;
22634;SDS011;11484;50.858;4.384;2023-04-16T12:12:46;17.88;;;8.13;;
22634;SDS011;11484;50.858;4.384;2023-04-16T12:15:12;14.13;;;7.80;;
22634;SDS011;11484;50.858;4.384;2023-04-16T12:17:38;17.00;;;8.07;;
22634;SDS011;11484;50.858;4.384;2023-04-16T12:20:07;12.80;;;7.78;;
22634;SDS011;11484;50.858;4.384;2023-04-16T12:22:35;14.15;;;8.50;;
22634;SDS011;11484;50.858;4.384;2023-04-16T12:25:03;13.35;;;8.15;;
22634;SDS011;11484;50.858;4.384;2023-04-16T12:27:46;15.90;;;8.57;;
22634;SDS011;11484;50.858;4.384;2023-04-16T12:30:15;14.55;;;7.85;;
22634;SDS011;11484;50.858;4.384;2023-04-16T12:32:42;13.82;;;8.65;;
22634;SDS011;11484;50.858;4.384;2023-04-16T12:35:10;13.20;;;8.38;;
22634;SDS011;11484;50.858;4.384;2023-04-16T12:37:36;16.27;;;8.32;;
22634;SDS011;11484;50.858;4.384;2023-04-16T12:40:03;15.50;;;8.23;;
22634;SDS011;11484;50.858;4.384;2023-04-16T12:42:30;13.77;;;7.50;;
22634;SDS011;11484;50.858;4.384;2023-04-16T12:45:03;14.02;;;7.72;;
22634;SDS011;11484;50.858;4.384;2023-04-16T12:47:30;13.73;;;7.60;;
22634;SDS011;11484;50.858;4.384;2023-04-16T12:49:56;16.88;;;8.27;;
22634;SDS011;11484;50.858;4.384;2023-04-16T12:52:23;13.23;;;7.78;;
22634;SDS011;11484;50.858;4.384;2023-04-16T12:54:49;14.35;;;8.20;;
22634;SDS011;11484;50.858;4.384;2023-04-16T12:57:16;15.80;;;8.30;;
22634;SDS011;11484;50.858;4.384;2023-04-16T12:59:41;17.98;;;8.43;;
22634;SDS011;11484;50.858;4.384;2023-04-16T13:02:07;14.07;;;9.10;;
22634;SDS011;11484;50.858;4.384;2023-04-16T13:04:33;15.77;;;9.32;;
22634;SDS011;11484;50.858;4.384;2023-04-16T13:06:58;19.75;;;8.85;;
22634;SDS011;11484;50.858;4.384;2023-04-16T13:09:30;19.77;;;9.32;;
22634;SDS011;11484;50.858;4.384;2023-04-16T13:11:56;17.17;;;8.57;;
22634;SDS011;11484;50.858;4.384;2023-04-16T13:14:22;17.98;;;9.52;;
22634;SDS011;11484;50.858;4.384;2023-04-16T13:16:47;16.95;;;8.18;;
22634;SDS011;11484;50.858;4.384;2023-04-16T13:19:13;14.13;;;8.45;;
22634;SDS011;11484;50.858;4.384;2023-04-16T13:21:39;14.32;;;9.20;;
22634;SDS011;11484;50.858;4.384;2023-04-16T13:24:05;14.65;;;9.20;;
22634;SDS011;11484;50.858;4.384;2023-04-16T13:26:31;15.43;;;9.38;;
22634;SDS011;11484;50.858;4.384;2023-04-16T13:28:57;14.00;;;9.60;;
22634;SDS011;11484;50.858;4.384;2023-04-16T13:31:23;16.40;;;9.63;;
22634;SDS011;11484;50.858;4.384;2023-04-16T13:33:49;15.77;;;9.82;;
22634;SDS011;11484;50.858;4.384;2023-04-16T13:36:15;16.90;;;9.68;;
22634;SDS011;11484;50.858;4.384;2023-04-16T13:38:41;16.50;;;9.65;;
22634;SDS011;11484;50.858;4.384;2023-04-16T13:41:07;19.02;;;9.15;;
22634;SDS011;11484;50.858;4.384;2023-04-16T13:43:32;14.98;;;9.15;;
22634;SDS011;11484;50.858;4.384;2023-04-16T13:45:58;14.70;;;8.88;;
22634;SDS011;11484;50.858;4.384;2023-04-16T13:48:25;15.45;;;8.65;;
22634;SDS011;11484;50.858;4.384;2023-04-16T13:50:50;17.70;;;9.60;;
22634;SDS011;11484;50.858;4.384;2023-04-16T13:53:16;15.68;;;9.43;;
22634;SDS011;11484;50.858;4.384;2023-04-16T13:55:43;16.38;;;10.27;;
22634;SDS011;11484;50.858;4.384;2023-04-16T13:58:09;19.50;;;11.25;;
22634;SDS011;11484;50.858;4.384;2023-04-16T14:00:35;19.17;;;10.38;;
22634;SDS011;11484;50.858;4.384;2023-04-16T14:03:02;17.65;;;10.52;;
22634;SDS011;11484;50.858;4.384;2023-04-16T14:05:30;21.67;;;11.10;;
22634;SDS011;11484;50.858;4.384;2023-04-16T14:07:56;14.63;;;9.95;;
22634;SDS011;11484;50.858;4.384;2023-04-16T14:10:22;16.15;;;9.25;;
22634;SDS011;11484;50.858;4.384;2023-04-16T14:12:48;16.27;;;8.70;;
22634;SDS011;11484;50.858;4.384;2023-04-16T14:15:13;17.70;;;9.30;;
22634;SDS011;11484;50.858;4.384;2023-04-16T14:17:40;15.77;;;9.32;;
22634;SDS011;11484;50.858;4.384;2023-04-16T14:20:11;15.38;;;8.95;;
22634;SDS011;11484;50.858;4.384;2023-04-16T14:22:38;13.45;;;8.85;;
22634;SDS011;11484;50.858;4.384;2023-04-16T14:25:04;17.58;;;9.77;;
22634;SDS011;11484;50.858;4.384;2023-04-16T14:27:30;16.13;;;9.23;;
22634;SDS011;11484;50.858;4.384;2023-04-16T14:29:58;18.98;;;11.10;;
22634;SDS011;11484;50.858;4.384;2023-04-16T14:32:23;18.00;;;11.00;;
22634;SDS011;11484;50.858;4.384;2023-04-16T14:34:49;17.80;;;11.52;;
22634;SDS011;11484;50.858;4.384;2023-04-16T14:37:16;18.15;;;11.43;;
22634;SDS011;11484;50.858;4.384;2023-04-16T14:39:42;18.75;;;10.38;;
22634;SDS011;11484;50.858;4.384;2023-04-16T14:42:08;17.38;;;9.77;;
22634;SDS011;11484;50.858;4.384;2023-04-16T14:44:34;13.70;;;9.95;;
22634;SDS011;11484;50.858;4.384;2023-04-16T14:47:00;15.57;;;10.23;;
22634;SDS011;11484;50.858;4.384;2023-04-16T14:49:26;21.13;;;11.82;;
22634;SDS011;11484;50.858;4.384;2023-04-16T14:51:51;23.60;;;12.85;;
22634;SDS011;11484;50.858;4.384;2023-04-16T14:54:17;18.83;;;11.70;;